Huffman, TX

10:40 PM CDT on July 03, 2015 (GMT -0500)
Kings Point | | Change Station
CLOSE
Current Station
Personal Weather Station
Location: Houston, TX
Elevation: 72 ft
Nearby Weather Stations

Elev 72 ft 30.06 °N, 95.15 °W | Updated 11 minutes ago

Partly Cloudy
Partly Cloudy
80.1 °F
Feels Like 85 °F
N
1.7
Wind Variable Wind from SSE

Today
High -- | Low -- °F
--% Chance of Precip.
Yesterday
High -- | Low -- °F
Precip. -- in
6:23 AM 8:25 PM
Waning Gibbous, 94% visible
Pressure 29.96 in
Visibility 10.0 miles
Clouds Few 2500 ft
Mostly Cloudy 25000 ft
Heat Index 85 °F
Dew Point 74 °F
Humidity 83%
Rainfall 0.36 in
Snow Depth Not available.
UV 0 out of 12
Pollen 3.60 out of 12
Air Quality Not available.
Flu Activity Not available.
METAR KIAH 040253Z 18005KT 10SM FEW025 BKN250 28/23 A2996 RMK AO2 SLP143 T02830233 53001

More Conditions Fewer Conditions

Pressure 29.96 in
Visibility 10.0 miles
Clouds Few 2500 ft
Mostly Cloudy 25000 ft
Heat Index 85 °F
Dew Point 74 °F
Humidity 83%
Rainfall 0.36 in
Snow Depth Not available.
UV 0 out of 12
Pollen 3.60 out of 12
Air Quality Not available.
Flu Activity Not available.
METAR KIAH 040253Z 18005KT 10SM FEW025 BKN250 28/23 A2996 RMK AO2 SLP143 T02830233 53001

More Conditions Fewer Conditions

10-Day Weather Forecast

×

Almanac

Astronomy

Jul. 03, 2015 Rise Set
Actual Time
Civil Twilight
Nautical Twilight
Astronomical Twilight
Moon
Length of Visible Light
Length of Day
Tomorrow will be .
, % of the Moon is Illuminated

Today's Extremes

State Highs State Lows

Community

WunderPhotos

Upload Photos

1,834,917 photos uploaded!

WunderBlogs® & News

Nearby

Air Quality

  Air Quality AQ Index Pollutant
Not available.

Snow Depth

Station Depth Elevation

Earthquake Activity

City Distance Mag. Time & Date
Minimum magnitude displayed is 2.5.

Coastal Water Temperatures

Place Temperature

Stations

Nearby Weather Stations

Station Location Temp. Windchill Dew Point Humidity Wind Precip. Elev Updated Type